Madison Heights, VA (24572)

10:46 EST le 20 décembre 2014 (GMT -0500)
Concord Turnpike | Change Station
CLOSE
Current Station
Stations météorologiques personnelles
Location: Lynchburg, VA
Altitude: 515 ft
Stations météo à proximité

Alt. 515 ft 37.40 °N, 79.11 °W | Updated 2 minutes ago

Couvert
Couvert
34.8 ° F
Paraît 35 ° F
N
0.4
Vent Variable Vent de Sud
Gusts 6.1 mph

Aujourd'hui
Haut(e) -- | Bas -- ° F
--% Risque de précip.
Hier
Haut(e) -- | Bas -- ° F
Precip. -- pouce
7:26 AM 5:01 PM
Lune descendante, 3% visible
Pression 30.34 pouce
Visibilité 10.0 Miles terrestres
Nuages Nuageux 5500 ft
Nuageux 7500 ft
Couvert 9000 ft
Refroidissement éolien 35 ° F
Point de rosée 21 ° F
Humidité 57%
Précipitations 0.00 pouce
Profondeur de la couche neigeuse Non disponible.
UV 0 sur 12
Pollen .10 sur 12
Qualité de l'air Non disponible.
Flu Activity Non disponible.
METAR KLYH 201454Z 18004KT 10SM BKN055 BKN075 OVC090 M01/M05 A3031 RMK AO2 SLP272 T10061050 53009

More Conditions Fewer Conditions

Pression 30.34 pouce
Visibilité 10.0 Miles terrestres
Nuages Nuageux 5500 ft
Nuageux 7500 ft
Couvert 9000 ft
Refroidissement éolien 35 ° F
Point de rosée 21 ° F
Humidité 57%
Précipitations 0.00 pouce
Profondeur de la couche neigeuse Non disponible.
UV 0 sur 12
Pollen .10 sur 12
Qualité de l'air Non disponible.
Flu Activity Non disponible.
METAR KLYH 201454Z 18004KT 10SM BKN055 BKN075 OVC090 M01/M05 A3031 RMK AO2 SLP272 T10061050 53009

More Conditions Fewer Conditions

10-Day Weather Forecast

Almanac

Astronomie

Dec. 20, 2014 Lever Coucher
Temps réel
Crépuscule civil
Crépuscule nautique
Crépuscule astronomique
Lune
Durée de lumière visible
Longueur du jour
Tomorrow will be .
, % of the Moon is Illuminated

Extrêmes aujourd'hui

State Highs State Lows

Community

WunderPhotos

Upload Photos

1,779,211 Photos téléchargées !

WunderBlogs® & News

Nearby

Qualité de l'air

  Qualité de l'air Indice de la qualité de l'air Polluant
Not available.

Épaisseur de neige

Station Depth Altitude

Activité sismique

Ville Distance Mag. Time & Date
Minimum magnitude displayed is 2.5.

Températures des eaux côtières

Lieu Température

Stations météo à proximité